Time;durP1;ratioP1;P1;durP2;ratioP2;P2;SDS_P1;SDS_P2;PMS_P1;PMS_P2;Temp;Humidity;BMP_temperature;BMP_pressure;BME280_temperature;BME280_humidity;BME280_pressure;Samples;Min_cycle;Max_cycle;Signal;HPM_P1;HPM_P2
2021/08/20 00:00:09;;;;;;;4.13;2.45;;;;;;;16.09;100.00;96263.09;5071545;28;20434;-81
2021/08/20 00:02:41;;;;;;;4.47;2.65;;;;;;;16.08;100.00;96259.59;5079850;28;20032;-81
2021/08/20 00:05:08;;;;;;;7.82;3.40;;;;;;;16.10;100.00;96262.91;5074713;28;20087;-80
2021/08/20 00:07:34;;;;;;;5.05;2.45;;;;;;;16.09;100.00;96269.19;5075820;28;20052;-81
2021/08/20 00:10:00;;;;;;;4.15;2.72;;;;;;;16.07;100.00;96262.47;5074439;28;20039;-80
2021/08/20 00:12:27;;;;;;;6.07;2.60;;;;;;;16.12;100.00;96255.56;5083176;28;20028;-80
2021/08/20 00:14:57;;;;;;;4.85;2.65;;;;;;;16.14;100.00;96258.03;5091189;28;20103;-79
2021/08/20 00:17:23;;;;;;;6.72;2.70;;;;;;;16.10;100.00;96259.44;5075686;28;20058;-78
2021/08/20 00:19:49;;;;;;;4.68;2.50;;;;;;;16.06;100.00;96260.81;5086486;28;20024;-77
2021/08/20 00:22:15;;;;;;;7.05;3.10;;;;;;;16.03;100.00;96254.09;5076733;28;20035;-79
2021/08/20 00:24:41;;;;;;;6.60;2.75;;;;;;;16.09;100.00;96258.59;5082796;28;20028;-81
2021/08/20 00:27:07;;;;;;;5.28;2.90;;;;;;;16.09;100.00;96253.28;5056689;28;20801;-81
2021/08/20 00:29:33;;;;;;;5.10;2.72;;;;;;;16.07;100.00;96255.31;5052391;28;20069;-80
2021/08/20 00:31:59;;;;;;;6.40;3.17;;;;;;;16.06;100.00;96258.97;5065082;28;20032;-80
2021/08/20 00:34:26;;;;;;;8.13;3.25;;;;;;;16.01;100.00;96254.25;5070720;28;20576;-79
2021/08/20 00:36:52;;;;;;;5.13;2.67;;;;;;;15.93;100.00;96243.00;5054255;28;20021;-79
2021/08/20 00:39:18;;;;;;;5.15;2.80;;;;;;;15.95;100.00;96248.91;5079569;28;20044;-80
2021/08/20 00:41:46;;;;;;;9.73;3.25;;;;;;;15.97;100.00;96242.41;5075906;28;20816;-80
2021/08/20 00:44:12;;;;;;;4.80;2.70;;;;;;;15.98;100.00;96243.22;5063619;28;20032;-81
2021/08/20 00:46:38;;;;;;;8.15;3.33;;;;;;;15.95;100.00;96240.94;5081917;28;20028;-80
2021/08/20 00:49:04;;;;;;;5.35;2.90;;;;;;;15.92;100.00;96239.50;5056284;28;20036;-81
2021/08/20 00:51:35;;;;;;;5.07;3.22;;;;;;;15.85;100.00;96243.09;5074102;28;20028;-78
2021/08/20 00:54:02;;;;;;;4.45;2.90;;;;;;;15.77;100.00;96242.25;5063209;28;20036;-79
2021/08/20 00:56:28;;;;;;;8.25;2.95;;;;;;;15.81;100.00;96239.22;5052353;28;20029;-81
2021/08/20 00:58:54;;;;;;;5.25;3.10;;;;;;;15.88;100.00;96250.69;5078369;28;20032;-80
2021/08/20 01:01:20;;;;;;;7.20;3.08;;;;;;;15.85;100.00;96237.81;5057581;28;20047;-80
2021/08/20 01:03:46;;;;;;;5.30;3.20;;;;;;;15.85;100.00;96240.47;5073496;28;20064;-79
2021/08/20 01:06:13;;;;;;;6.88;3.10;;;;;;;15.85;100.00;96240.47;5053217;28;20056;-80
2021/08/20 01:08:39;;;;;;;6.15;3.00;;;;;;;15.86;100.00;96234.13;5049453;28;20103;-80
2021/08/20 01:11:07;;;;;;;5.93;2.85;;;;;;;15.92;100.00;96236.03;5072183;28;20036;-80
2021/08/20 01:13:36;;;;;;;5.93;2.83;;;;;;;15.83;100.00;96238.00;5052243;28;20032;-79
2021/08/20 01:16:03;;;;;;;6.28;2.70;;;;;;;15.84;100.00;96238.81;5054573;28;20126;-80
2021/08/20 01:18:30;;;;;;;8.30;2.95;;;;;;;15.86;100.00;96239.44;5080698;28;20036;-81
2021/08/20 01:21:10;;;;;;;4.45;2.75;;;;;;;15.79;100.00;96240.22;5053705;28;20477;-81
2021/08/20 01:23:36;;;;;;;4.78;2.60;;;;;;;15.79;100.00;96234.94;5079651;28;20060;-78
2021/08/20 01:26:03;;;;;;;7.88;3.53;;;;;;;15.73;100.00;96232.22;5059105;28;20020;-80
2021/08/20 01:28:29;;;;;;;6.45;3.50;;;;;;;15.70;100.00;96238.72;5063828;28;20036;-80
2021/08/20 01:31:10;;;;;;;8.15;3.33;;;;;;;15.67;100.00;96228.50;5065291;28;20524;-81
2021/08/20 01:33:38;;;;;;;5.38;3.00;;;;;;;15.63;100.00;96232.50;5070299;28;20032;-77
2021/08/20 01:36:05;;;;;;;7.22;3.05;;;;;;;15.66;100.00;96223.34;5087983;28;20050;-78
2021/08/20 01:38:31;;;;;;;7.18;2.80;;;;;;;15.63;100.00;96235.16;5080188;28;20032;-77
2021/08/20 01:40:57;;;;;;;6.10;3.00;;;;;;;15.68;100.00;96234.59;5080985;28;20012;-80
2021/08/20 01:43:23;;;;;;;7.90;3.38;;;;;;;15.63;100.00;96229.84;5064295;28;20143;-80
2021/08/20 01:45:51;;;;;;;4.55;2.97;;;;;;;15.54;100.00;96231.00;5058801;28;20036;-80
2021/08/20 01:48:18;;;;;;;6.80;3.75;;;;;;;15.46;100.00;96226.66;5054894;28;20064;-80
2021/08/20 01:50:44;;;;;;;5.05;3.10;;;;;;;15.47;100.00;96233.59;5057955;28;20032;-80
2021/08/20 01:53:14;;;;;;;6.18;3.30;;;;;;;15.43;100.00;96226.22;5058779;28;20166;-80
2021/08/20 01:55:41;;;;;;;6.57;3.17;;;;;;;15.46;100.00;96225.81;5061799;28;20098;-79
2021/08/20 01:58:11;;;;;;;5.75;2.75;;;;;;;15.37;100.00;96227.78;5068290;28;20021;-79
2021/08/20 02:00:38;;;;;;;6.03;3.38;;;;;;;15.24;100.00;96223.16;5068905;28;20037;-77
2021/08/20 02:03:05;;;;;;;5.85;3.47;;;;;;;15.30;100.00;96224.25;5082524;28;20401;-77
2021/08/20 02:05:32;;;;;;;6.05;3.13;;;;;;;15.40;100.00;96226.59;5084785;28;20104;-80
2021/08/20 02:08:01;;;;;;;5.20;3.40;;;;;;;15.43;100.00;96223.56;5072604;28;20032;-81
2021/08/20 02:10:28;;;;;;;7.10;3.05;;;;;;;15.42;100.00;96232.50;5070447;28;20031;-80
2021/08/20 02:12:55;;;;;;;10.50;3.63;;;;;;;15.39;100.00;96227.56;5086425;28;20054;-80
2021/08/20 02:15:26;;;;;;;7.95;3.08;;;;;;;15.45;100.00;96224.19;5075691;28;20025;-81
2021/08/20 02:17:53;;;;;;;8.73;3.20;;;;;;;15.52;100.00;96231.16;5055991;28;20086;-80
2021/08/20 02:20:18;;;;;;;4.10;2.60;;;;;;;15.55;100.00;96233.44;5084247;28;20033;-81
2021/08/20 02:22:46;;;;;;;7.75;2.90;;;;;;;15.60;100.00;96237.38;5084086;28;20032;-80
2021/08/20 02:25:12;;;;;;;7.15;3.10;;;;;;;15.57;100.00;96227.97;5082635;28;20082;-80
2021/08/20 02:27:39;;;;;;;5.03;2.35;;;;;;;15.59;100.00;96241.84;5081869;28;20043;-80
2021/08/20 02:30:05;;;;;;;6.03;3.17;;;;;;;15.55;100.00;96237.94;5071604;28;20115;-81
2021/08/20 02:32:40;;;;;;;7.75;3.83;;;;;;;15.52;100.00;96233.81;5077156;28;20102;-80
2021/08/20 02:35:06;;;;;;;6.78;3.42;;;;;;;15.43;100.00;96229.69;5060139;28;20033;-81
2021/08/20 02:37:32;;;;;;;7.03;3.20;;;;;;;15.38;100.00;96231.25;5051912;28;20020;-80
2021/08/20 02:39:57;;;;;;;8.15;3.25;;;;;;;15.40;100.00;96230.06;5054673;28;20024;-81
2021/08/20 02:42:23;;;;;;;4.78;2.80;;;;;;;15.47;100.00;96228.28;5058782;28;20032;-79
2021/08/20 02:44:49;;;;;;;4.68;2.85;;;;;;;15.51;100.00;96226.88;5053169;28;20024;-80
2021/08/20 02:47:15;;;;;;;5.18;2.85;;;;;;;15.49;100.00;96231.56;5059258;28;20119;-78
2021/08/20 02:49:42;;;;;;;5.28;3.05;;;;;;;15.47;100.00;96232.75;5056706;28;20123;-81
2021/08/20 02:52:11;;;;;;;6.97;3.35;;;;;;;15.50;100.00;96235.03;5064117;28;20051;-78
2021/08/20 02:54:37;;;;;;;6.05;3.03;;;;;;;15.51;100.00;96226.06;5076680;28;20159;-79
2021/08/20 02:57:03;;;;;;;6.53;3.70;;;;;;;15.57;100.00;96227.97;5069109;28;20032;-81
2021/08/20 02:59:32;;;;;;;7.65;3.42;;;;;;;15.53;100.00;96229.38;5061332;28;20028;-79
2021/08/20 03:02:01;;;;;;;5.30;2.92;;;;;;;15.56;100.00;96227.16;5072581;28;20028;-80
2021/08/20 03:04:28;;;;;;;9.30;3.58;;;;;;;15.52;100.00;96225.88;5084050;28;20036;-81
2021/08/20 03:06:55;;;;;;;8.27;3.78;;;;;;;15.48;100.00;96229.09;5069722;28;20017;-80
2021/08/20 03:09:38;;;;;;;5.78;3.08;;;;;;;15.44;100.00;96227.84;5055864;28;20044;-79
2021/08/20 03:12:04;;;;;;;6.30;3.88;;;;;;;15.48;100.00;96229.91;5072585;28;20105;-79
2021/08/20 03:14:35;;;;;;;8.18;3.90;;;;;;;15.45;100.00;96232.13;5072547;28;20138;-80
2021/08/20 03:17:02;;;;;;;4.90;3.00;;;;;;;15.47;100.00;96236.22;5061526;28;20390;-80
2021/08/20 03:19:29;;;;;;;7.15;3.85;;;;;;;15.44;100.00;96233.13;5068740;28;20020;-81
2021/08/20 03:21:55;;;;;;;7.05;3.42;;;;;;;15.42;100.00;96235.16;5081275;28;20055;-79
2021/08/20 03:24:23;;;;;;;7.80;4.10;;;;;;;15.42;100.00;96222.72;5058345;28;20063;-81
2021/08/20 03:26:50;;;;;;;7.22;3.58;;;;;;;15.42;100.00;96222.72;5051785;28;20025;-81
2021/08/20 03:29:16;;;;;;;8.35;4.15;;;;;;;15.26;100.00;96225.66;5065188;28;20028;-79
2021/08/20 03:31:56;;;;;;;6.30;3.55;;;;;;;15.11;100.00;96219.56;5066294;28;20056;-81
2021/08/20 03:34:22;;;;;;;7.25;3.30;;;;;;;15.15;100.00;96220.81;5059313;28;20509;-79
2021/08/20 03:36:49;;;;;;;6.07;3.00;;;;;;;15.16;100.00;96223.31;5074720;28;20030;-81
2021/08/20 03:39:34;;;;;;;6.50;2.90;;;;;;;15.22;100.00;96225.16;5074428;28;20277;-80
2021/08/20 03:42:00;;;;;;;9.85;5.55;;;;;;;15.23;100.00;96220.72;5061168;28;20505;-80
2021/08/20 03:44:29;;;;;;;5.93;3.45;;;;;;;15.19;100.00;96222.06;5074072;28;20043;-78
2021/08/20 03:46:56;;;;;;;7.13;3.63;;;;;;;15.12;100.00;96229.97;5067805;28;20088;-79
2021/08/20 03:49:23;;;;;;;5.78;3.65;;;;;;;15.11;100.00;96222.22;5064305;28;20032;-79
2021/08/20 03:51:49;;;;;;;11.68;4.55;;;;;;;15.08;100.00;96228.69;5066155;28;20035;-80
2021/08/20 03:54:22;;;;;;;7.03;3.47;;;;;;;15.16;100.00;96241.03;5082406;28;20032;-79
2021/08/20 03:56:49;;;;;;;6.03;3.50;;;;;;;15.19;100.00;96245.91;5076157;28;20032;-80
2021/08/20 03:59:20;;;;;;;7.88;3.35;;;;;;;15.26;100.00;96252.13;5079738;28;20016;-77
2021/08/20 04:01:48;;;;;;;8.00;3.75;;;;;;;15.31;100.00;96239.94;5076525;28;20028;-80
2021/08/20 04:04:21;;;;;;;5.50;3.45;;;;;;;15.27;100.00;96246.63;5100056;27;20759;-80
2021/08/20 04:07:05;;;;;;;6.28;3.45;;;;;;;15.32;100.00;96251.34;5081014;28;20578;-80
2021/08/20 04:09:41;;;;;;;7.13;3.75;;;;;;;15.36;100.00;96257.94;5088776;28;20040;-80
2021/08/20 04:12:29;;;;;;;6.68;3.25;;;;;;;15.37;100.00;96248.97;5067682;28;20024;-79
2021/08/20 04:15:11;;;;;;;7.97;4.00;;;;;;;15.38;100.00;96250.59;5073433;28;20044;-80
2021/08/20 04:17:37;;;;;;;8.85;3.88;;;;;;;15.39;100.00;96257.56;5087448;28;20024;-78
2021/08/20 04:20:04;;;;;;;6.60;3.40;;;;;;;15.35;100.00;96255.47;5072934;28;20028;-78
2021/08/20 04:22:29;;;;;;;6.60;3.25;;;;;;;15.37;100.00;96256.94;5098163;28;20516;-79
2021/08/20 04:24:55;;;;;;;6.10;3.40;;;;;;;15.35;100.00;96255.47;5095110;28;20032;-79
2021/08/20 04:27:39;;;;;;;6.78;3.90;;;;;;;15.35;100.00;96253.63;5093855;28;20044;-79
2021/08/20 04:30:29;;;;;;;5.85;3.38;;;;;;;15.36;100.00;96262.41;5100341;28;20012;-78
2021/08/20 04:33:15;;;;;;;8.57;3.75;;;;;;;15.36;100.00;96254.44;5111178;28;20047;-79
2021/08/20 04:36:01;;;;;;;7.60;3.95;;;;;;;15.36;100.00;96254.44;5078019;28;20043;-81
2021/08/20 04:38:45;;;;;;;6.30;3.40;;;;;;;15.39;100.00;96256.72;5083011;28;20028;-82
2021/08/20 04:41:22;;;;;;;6.63;3.97;;;;;;;15.28;100.00;96258.88;5073553;28;20055;-82
2021/08/20 04:44:02;;;;;;;5.97;3.80;;;;;;;15.23;100.00;96269.22;5081945;28;20013;-82
2021/08/20 04:46:46;;;;;;;7.50;4.05;;;;;;;15.30;100.00;96269.28;5092811;28;20561;-82
2021/08/20 04:49:23;;;;;;;6.65;3.65;;;;;;;15.26;100.00;96278.63;5078772;28;20051;-82
2021/08/20 04:52:05;;;;;;;7.15;3.97;;;;;;;15.23;100.00;96274.53;5093254;28;20043;-82
2021/08/20 04:54:50;;;;;;;8.68;4.45;;;;;;;15.26;100.00;96268.84;5074155;28;20033;-82
2021/08/20 04:57:19;;;;;;;10.23;3.97;;;;;;;15.15;100.00;96282.56;5098278;28;20055;-82
2021/08/20 04:59:45;;;;;;;5.47;3.45;;;;;;;15.13;100.00;96281.94;5084518;28;20044;-83
2021/08/20 05:02:11;;;;;;;6.10;3.35;;;;;;;15.09;100.00;96284.16;5081150;28;20036;-82
2021/08/20 05:04:37;;;;;;;6.28;3.55;;;;;;;15.10;100.00;96284.97;5092518;28;20032;-82
2021/08/20 05:07:04;;;;;;;5.80;3.53;;;;;;;15.20;100.00;96280.19;5092986;28;20024;-82
2021/08/20 05:09:32;;;;;;;7.88;3.50;;;;;;;15.21;100.00;96281.00;5101704;28;20032;-81
2021/08/20 05:12:02;;;;;;;6.85;3.50;;;;;;;15.28;100.00;96276.59;5085682;28;20021;-81
2021/08/20 05:14:28;;;;;;;7.13;3.20;;;;;;;15.26;100.00;96275.97;5069341;28;20033;-82
2021/08/20 05:16:54;;;;;;;9.15;3.30;;;;;;;15.33;100.00;96275.03;5063394;28;20032;-85
2021/08/20 05:19:20;;;;;;;7.10;3.70;;;;;;;15.26;100.00;96290.03;5080668;28;20028;-82
2021/08/20 05:21:45;;;;;;;8.73;4.15;;;;;;;15.25;100.00;96284.91;5073501;28;20050;-82
2021/08/20 05:24:11;;;;;;;5.50;3.13;;;;;;;15.27;100.00;96281.06;5057572;28;20032;-81
2021/08/20 05:26:37;;;;;;;7.03;3.55;;;;;;;15.28;100.00;96293.31;5069169;28;20028;-82
2021/08/20 05:29:03;;;;;;;7.05;3.30;;;;;;;15.32;100.00;96294.59;5055942;28;20680;-82
2021/08/20 05:31:29;;;;;;;7.20;3.58;;;;;;;15.34;100.00;96289.09;5080977;28;20068;-83
2021/08/20 05:33:54;;;;;;;6.47;3.30;;;;;;;15.32;100.00;96299.06;5084722;28;20036;-82
2021/08/20 05:36:20;;;;;;;7.47;3.45;;;;;;;15.33;100.00;96301.53;5066498;28;20035;-82
2021/08/20 05:38:54;;;;;;;7.35;3.03;;;;;;;15.35;100.00;96303.16;5080135;28;20016;-80
2021/08/20 05:41:29;;;;;;;6.28;2.80;;;;;;;15.38;100.00;96308.09;5049237;28;20040;-82
2021/08/20 05:43:54;;;;;;;7.78;3.22;;;;;;;15.36;100.00;96299.50;5078940;28;20107;-82
2021/08/20 05:46:20;;;;;;;5.80;3.42;;;;;;;15.38;100.00;96297.50;5073365;28;20386;-82
2021/08/20 05:48:46;;;;;;;6.20;3.30;;;;;;;15.45;100.00;96293.06;5059222;28;20550;-80
2021/08/20 05:51:11;;;;;;;5.70;3.55;;;;;;;15.46;100.00;96300.00;5060252;28;20036;-81
2021/08/20 05:53:37;;;;;;;10.45;2.97;;;;;;;15.47;100.00;96305.13;5063541;28;20082;-82
2021/08/20 05:56:03;;;;;;;8.10;3.42;;;;;;;15.64;100.00;96308.38;5090045;28;20028;-82
2021/08/20 05:58:28;;;;;;;7.57;4.03;;;;;;;15.81;100.00;96310.81;5073902;28;20044;-80
2021/08/20 06:00:54;;;;;;;9.48;3.15;;;;;;;15.94;100.00;96314.41;5060934;28;21268;-81
2021/08/20 06:03:22;;;;;;;7.57;3.22;;;;;;;15.87;100.00;96310.88;5071863;28;20027;-81
2021/08/20 06:05:49;;;;;;;7.82;3.20;;;;;;;15.87;100.00;96315.34;5068569;28;20652;-81
2021/08/20 06:08:16;;;;;;;5.53;3.65;;;;;;;15.89;100.00;96321.25;5059841;28;20020;-83
2021/08/20 06:10:44;;;;;;;8.73;6.15;;;;;;;15.92;100.00;96312.94;5056459;28;20090;-82
2021/08/20 06:13:15;;;;;;;13.80;4.88;;;;;;;15.98;100.00;96322.78;5064092;28;20512;-83
2021/08/20 06:15:42;;;;;;;6.03;2.85;;;;;;;15.95;100.00;96318.69;5055259;28;20040;-79
2021/08/20 06:18:07;;;;;;;5.45;3.30;;;;;;;15.92;100.00;96320.88;5071242;28;20445;-81
2021/08/20 06:20:33;;;;;;;4.78;2.88;;;;;;;15.86;100.00;96322.50;5061236;28;20078;-82
2021/08/20 06:22:59;;;;;;;5.25;3.00;;;;;;;15.86;100.00;96326.94;5056846;28;20051;-81
2021/08/20 06:25:25;;;;;;;6.13;3.35;;;;;;;15.89;100.00;96327.38;5081348;28;20028;-79
2021/08/20 06:27:50;;;;;;;5.32;3.22;;;;;;;15.87;100.00;96329.44;5059637;28;20025;-81
2021/08/20 06:30:16;;;;;;;5.93;3.55;;;;;;;15.84;100.00;96329.81;5074612;28;20024;-81
2021/08/20 06:32:42;;;;;;;7.88;3.40;;;;;;;15.89;100.00;96331.88;5053638;28;20094;-81
2021/08/20 06:35:08;;;;;;;7.35;3.50;;;;;;;15.97;100.00;96329.13;5087186;28;20025;-82
2021/08/20 06:37:34;;;;;;;5.57;3.42;;;;;;;16.07;100.00;96324.31;5076658;28;20114;-82
2021/08/20 06:40:00;;;;;;;5.45;3.58;;;;;;;16.14;100.00;96327.81;5057193;28;20135;-80
2021/08/20 06:42:25;;;;;;;5.97;3.65;;;;;;;16.22;100.00;96332.16;5057310;28;20084;-82
2021/08/20 06:44:51;;;;;;;5.68;3.30;;;;;;;16.14;100.00;96334.97;5070215;28;20114;-81
2021/08/20 06:47:18;;;;;;;6.78;4.13;;;;;;;16.23;100.00;96334.66;5056236;28;20513;-81
2021/08/20 06:49:44;;;;;;;9.02;4.15;;;;;;;16.22;100.00;96335.63;5052816;28;20059;-80
2021/08/20 06:52:11;;;;;;;6.55;3.75;;;;;;;16.50;100.00;96337.50;5073985;28;20036;-81
2021/08/20 06:54:37;;;;;;;6.88;3.53;;;;;;;16.46;100.00;96336.22;5059917;28;20039;-81
2021/08/20 06:57:03;;;;;;;8.52;3.63;;;;;;;16.46;100.00;96338.88;5066812;28;20115;-82
2021/08/20 06:59:29;;;;;;;6.60;3.83;;;;;;;16.48;100.00;96332.38;5092757;28;20023;-80
2021/08/20 07:01:54;;;;;;;6.40;3.70;;;;;;;16.50;100.00;96329.53;5091479;28;20021;-80
2021/08/20 07:04:20;;;;;;;8.02;3.97;;;;;;;16.54;100.00;96335.28;5099089;28;20031;-79
2021/08/20 07:06:46;;;;;;;8.43;3.75;;;;;;;16.64;100.00;96333.09;5071903;28;20120;-83
2021/08/20 07:09:11;;;;;;;5.25;3.63;;;;;;;16.54;100.00;96338.75;5083608;28;20035;-82
2021/08/20 07:11:37;;;;;;;6.10;3.80;;;;;;;16.61;100.00;96331.63;5059154;28;20422;-81
2021/08/20 07:14:03;;;;;;;8.95;4.25;;;;;;;16.75;100.00;96334.41;5077773;28;20044;-81
2021/08/20 07:16:29;;;;;;;6.50;4.05;;;;;;;16.75;99.54;96339.72;5076084;28;20039;-81
2021/08/20 07:18:54;;;;;;;8.90;4.97;;;;;;;16.95;99.50;96349.44;5059136;28;20024;-81
2021/08/20 07:21:20;;;;;;;11.30;8.05;;;;;;;16.84;100.00;96342.03;5086029;28;20076;-83
2021/08/20 07:23:46;;;;;;;6.70;3.38;;;;;;;16.96;100.00;96342.28;5060146;28;20127;-82
2021/08/20 07:26:12;;;;;;;6.05;3.40;;;;;;;17.05;100.00;96341.09;5067441;28;20031;-82
2021/08/20 07:28:38;;;;;;;6.47;3.80;;;;;;;17.10;99.18;96340.50;5056719;28;20029;-82
2021/08/20 07:31:04;;;;;;;5.60;3.70;;;;;;;17.30;98.43;96335.28;5081166;28;20094;-83
2021/08/20 07:33:30;;;;;;;5.97;3.67;;;;;;;17.50;95.60;96333.50;5058572;28;20055;-84
2021/08/20 07:35:58;;;;;;;9.25;3.83;;;;;;;17.62;93.81;96336.41;5056927;28;20052;-81
2021/08/20 07:38:24;;;;;;;7.03;3.55;;;;;;;17.79;91.25;96332.38;5076088;28;20036;-83
2021/08/20 07:40:50;;;;;;;6.10;3.20;;;;;;;18.05;90.42;96336.94;5068649;28;20044;-83
2021/08/20 07:43:15;;;;;;;6.35;4.00;;;;;;;18.38;88.09;96341.44;5055113;28;20059;-82
2021/08/20 07:45:41;;;;;;;8.07;3.67;;;;;;;18.74;86.69;96342.84;5054417;28;20032;-84
2021/08/20 07:48:08;;;;;;;8.70;4.28;;;;;;;18.61;85.20;96335.66;5063628;28;20031;-81
2021/08/20 07:50:35;;;;;;;8.30;4.50;;;;;;;18.78;84.56;96344.91;5060634;28;20028;-81
2021/08/20 07:53:00;;;;;;;6.18;3.63;;;;;;;18.78;83.02;96344.09;5081654;28;20024;-83
2021/08/20 07:55:26;;;;;;;6.28;3.65;;;;;;;18.92;81.69;96342.22;5057479;28;20040;-82
2021/08/20 07:57:54;;;;;;;8.93;4.50;;;;;;;18.88;80.38;96335.66;5080331;28;20028;-82
2021/08/20 08:00:26;;;;;;;7.80;4.03;;;;;;;19.24;79.50;96338.63;5081425;28;20032;-80
2021/08/20 08:02:54;;;;;;;6.97;3.58;;;;;;;19.54;79.42;96343.41;5048806;28;20129;-81
2021/08/20 08:05:20;;;;;;;6.57;4.28;;;;;;;20.07;77.26;96342.31;5083095;28;20016;-79
2021/08/20 08:07:47;;;;;;;7.40;4.07;;;;;;;20.39;74.21;96340.44;5080355;28;20032;-77
2021/08/20 08:10:13;;;;;;;6.93;4.57;;;;;;;20.77;73.10;96343.00;5077958;28;20020;-80
2021/08/20 08:12:39;;;;;;;7.28;3.95;;;;;;;21.72;70.05;96329.13;5083461;28;20628;-81
2021/08/20 08:15:08;;;;;;;5.60;3.58;;;;;;;21.86;68.13;96335.13;5060838;28;20025;-82
2021/08/20 08:17:37;;;;;;;7.80;4.68;;;;;;;21.98;67.80;96332.50;5056757;28;20032;-82
2021/08/20 08:20:05;;;;;;;9.00;4.53;;;;;;;22.55;64.97;96330.97;5065494;28;20123;-80
2021/08/20 08:22:30;;;;;;;9.40;4.40;;;;;;;22.40;64.41;96341.34;5084716;28;20012;-81
2021/08/20 08:24:56;;;;;;;7.43;4.55;;;;;;;23.27;61.59;96343.31;5070303;28;20032;-82
2021/08/20 08:27:22;;;;;;;10.38;3.88;;;;;;;24.10;59.86;96333.91;5058415;28;20040;-81
2021/08/20 08:29:48;;;;;;;9.38;5.07;;;;;;;24.73;58.02;96336.56;5076754;28;20025;-80
2021/08/20 08:32:13;;;;;;;6.65;3.97;;;;;;;24.07;59.71;96339.75;5067736;28;20029;-81
2021/08/20 08:34:39;;;;;;;6.72;4.20;;;;;;;24.08;59.26;96349.47;5061220;28;20090;-81
2021/08/20 08:37:06;;;;;;;8.52;4.20;;;;;;;24.69;58.56;96345.13;5075170;28;20119;-81
2021/08/20 08:39:32;;;;;;;6.00;3.60;;;;;;;24.52;57.14;96344.31;5064089;28;20032;-82
2021/08/20 08:41:58;;;;;;;7.63;4.30;;;;;;;25.01;55.43;96349.88;5082382;28;20043;-79
2021/08/20 08:44:24;;;;;;;5.68;3.97;;;;;;;24.56;56.82;96342.75;5063536;28;20029;-79
2021/08/20 08:46:51;;;;;;;5.22;3.45;;;;;;;25.15;54.89;96343.13;5062368;28;20039;-80
2021/08/20 08:49:21;;;;;;;6.93;3.97;;;;;;;23.99;59.38;96356.28;5070880;28;20033;-81
2021/08/20 08:51:48;;;;;;;6.60;3.45;;;;;;;24.73;56.44;96339.25;5083927;28;20041;-81
2021/08/20 08:54:15;;;;;;;8.48;3.72;;;;;;;24.92;55.51;96337.94;5072709;28;20036;-79
2021/08/20 08:56:46;;;;;;;6.55;3.75;;;;;;;25.09;54.90;96337.88;5089116;28;20497;-81
2021/08/20 08:59:12;;;;;;;4.97;3.08;;;;;;;24.55;56.71;96346.53;5089782;28;20040;-82
2021/08/20 09:01:38;;;;;;;8.07;4.00;;;;;;;22.95;60.42;96351.75;5057503;28;20555;-82
2021/08/20 09:04:09;;;;;;;5.90;3.70;;;;;;;22.73;62.66;96346.13;5085643;28;20618;-81
2021/08/20 09:06:46;;;;;;;6.57;3.67;;;;;;;23.49;60.89;96346.19;5077556;28;20034;-82
2021/08/20 09:09:17;;;;;;;8.40;3.97;;;;;;;25.02;56.85;96340.75;5079419;28;20447;-81
2021/08/20 09:11:44;;;;;;;5.05;3.30;;;;;;;25.72;53.84;96341.09;5058676;28;20062;-82
2021/08/20 09:14:10;;;;;;;6.15;3.30;;;;;;;25.36;56.10;96341.50;5062559;28;20463;-80
2021/08/20 09:16:41;;;;;;;4.90;3.10;;;;;;;26.16;51.58;96338.34;5067420;28;20029;-82
2021/08/20 09:19:12;;;;;;;6.43;3.20;;;;;;;26.47;50.62;96339.41;5059001;28;20029;-81
2021/08/20 09:21:54;;;;;;;5.38;2.50;;;;;;;27.05;49.22;96334.97;5062734;28;20061;-82
2021/08/20 09:24:38;;;;;;;6.05;3.40;;;;;;;27.27;48.80;96338.38;5068700;28;20043;-82
2021/08/20 09:27:19;;;;;;;5.55;2.72;;;;;;;26.81;49.36;96339.97;5082216;28;20035;-82
2021/08/20 09:30:14;;;;;;;5.35;3.17;;;;;;;27.91;44.71;96350.78;5079195;28;20044;-81
2021/08/20 09:32:42;;;;;;;5.85;3.25;;;;;;;28.24;44.99;96339.78;5059028;28;20029;-82
2021/08/20 09:35:08;;;;;;;5.18;3.22;;;;;;;26.27;50.08;96348.97;5067631;28;20750;-81
2021/08/20 09:37:34;;;;;;;6.25;3.08;;;;;;;25.65;52.01;96349.34;5084506;28;20039;-82
2021/08/20 09:40:18;;;;;;;4.85;3.15;;;;;;;24.37;54.38;96350.22;5065321;28;20033;-81
2021/08/20 09:42:44;;;;;;;6.20;2.97;;;;;;;23.32;57.77;96356.84;5062221;28;20040;-82
2021/08/20 09:45:21;;;;;;;5.18;2.83;;;;;;;23.60;56.48;96353.38;5059169;28;20497;-82
2021/08/20 09:47:53;;;;;;;5.10;2.95;;;;;;;24.08;56.84;96352.16;5093270;28;20059;-81
2021/08/20 09:50:21;;;;;;;5.40;2.92;;;;;;;25.19;53.48;96342.63;5082428;28;20032;-81
2021/08/20 09:52:48;;;;;;;8.80;3.70;;;;;;;26.19;49.93;96337.81;5084789;28;20347;-82
2021/08/20 09:55:37;;;;;;;5.53;3.10;;;;;;;27.27;47.59;96341.06;5060675;28;20124;-82
2021/08/20 09:58:07;;;;;;;4.28;2.75;;;;;;;27.02;46.40;96333.59;5058844;28;20486;-79
2021/08/20 10:00:34;;;;;;;5.85;2.88;;;;;;;27.43;45.73;96338.44;5058153;28;20033;-80
2021/08/20 10:03:02;;;;;;;7.07;3.00;;;;;;;26.85;46.91;96335.66;5077895;28;20044;-80
2021/08/20 10:05:28;;;;;;;5.20;3.15;;;;;;;27.52;47.45;96336.03;5077792;28;20047;-81
2021/08/20 10:07:55;;;;;;;5.50;3.08;;;;;;;26.80;46.52;96332.94;5088083;28;20043;-82
2021/08/20 10:10:22;;;;;;;4.40;2.60;;;;;;;25.29;47.56;96335.50;5089493;28;20066;-81
2021/08/20 10:12:48;;;;;;;5.40;3.53;;;;;;;24.68;51.84;96334.59;5060750;28;20041;-80
2021/08/20 10:15:14;;;;;;;4.95;3.25;;;;;;;24.52;52.83;96330.06;5082317;28;20539;-81
2021/08/20 10:17:40;;;;;;;4.95;3.25;;;;;;;25.26;51.22;96332.50;5089206;28;20032;-79
2021/08/20 10:20:08;;;;;;;4.65;2.83;;;;;;;24.67;53.12;96339.16;5065163;28;20082;-78
2021/08/20 10:22:34;;;;;;;4.85;3.13;;;;;;;24.28;55.05;96337.41;5061146;28;20028;-79
2021/08/20 10:25:02;;;;;;;5.15;2.90;;;;;;;23.93;55.28;96347.31;5064869;28;20055;-82
2021/08/20 10:27:32;;;;;;;5.78;2.75;;;;;;;23.83;56.21;96344.44;5060437;28;20029;-78
2021/08/20 10:29:58;;;;;;;7.63;3.13;;;;;;;24.82;53.11;96330.53;5082915;28;20021;-82
2021/08/20 10:32:24;;;;;;;4.63;2.75;;;;;;;26.15;49.50;96326.72;5087277;28;20508;-81
2021/08/20 10:34:50;;;;;;;4.50;2.60;;;;;;;27.24;47.02;96332.69;5066748;28;20060;-81
2021/08/20 10:37:27;;;;;;;4.60;2.78;;;;;;;27.15;46.94;96334.25;5080974;28;20029;-83
2021/08/20 10:39:56;;;;;;;6.45;2.60;;;;;;;28.43;44.04;96317.34;5050497;28;20029;-82
2021/08/20 10:42:34;;;;;;;3.72;2.65;;;;;;;27.87;43.61;96321.88;5062945;28;20024;-80
2021/08/20 10:45:07;;;;;;;3.60;2.03;;;;;;;28.06;41.63;96322.16;5069281;28;20049;-82
2021/08/20 10:47:33;;;;;;;4.47;2.28;;;;;;;28.53;40.43;96321.13;5057342;28;20064;-81
2021/08/20 10:50:09;;;;;;;5.22;2.65;;;;;;;29.65;38.89;96314.66;5057467;28;20035;-82
2021/08/20 10:52:38;;;;;;;3.03;1.98;;;;;;;28.56;38.78;96315.97;5071250;28;20653;-82
2021/08/20 10:55:10;;;;;;;3.35;2.10;;;;;;;29.18;37.75;96314.00;5081697;28;20107;-81
2021/08/20 10:57:39;;;;;;;;;;;;;;;27.90;40.45;96324.00;5081465;28;20028;-81
2021/08/20 11:00:07;;;;;;;3.20;2.08;;;;;;;27.47;43.57;96321.44;5073620;28;19909;-82
2021/08/20 11:02:38;;;;;;;5.15;2.42;;;;;;;27.93;41.29;96318.06;5080801;28;20055;-81
2021/08/20 11:05:09;;;;;;;4.37;2.20;;;;;;;29.03;40.89;96311.34;5071142;28;20039;-79
2021/08/20 11:07:35;;;;;;;4.43;2.10;;;;;;;29.85;37.52;96309.13;5072181;28;20538;-81
2021/08/20 11:10:20;;;;;;;6.57;2.42;;;;;;;29.17;40.24;96308.84;5056114;28;20060;-80
2021/08/20 11:12:48;;;;;;;5.28;2.55;;;;;;;29.26;39.81;96301.78;5069078;28;20059;-80
2021/08/20 11:15:20;;;;;;;4.60;2.33;;;;;;;30.87;37.03;96302.13;5059259;28;20040;-79
2021/08/20 11:17:50;;;;;;;4.00;2.20;;;;;;;29.80;37.36;96311.84;5075769;28;20032;-78
2021/08/20 11:20:23;;;;;;;4.53;2.63;;;;;;;30.81;35.73;96317.63;5069176;28;20046;-77
2021/08/20 11:23:04;;;;;;;3.92;2.10;;;;;;;29.20;36.52;96311.00;5059250;28;20025;-80
2021/08/20 11:25:51;;;;;;;2.92;2.00;;;;;;;28.69;38.47;96308.41;5060477;28;20118;-80
2021/08/20 11:28:27;;;;;;;4.43;2.30;;;;;;;28.29;39.40;96312.72;5086855;28;20122;-80
2021/08/20 11:30:58;;;;;;;4.82;3.00;;;;;;;27.43;41.79;96324.91;5068296;28;20059;-80
2021/08/20 11:33:29;;;;;;;5.65;2.65;;;;;;;27.18;41.37;96317.53;5104314;28;20077;-78
2021/08/20 11:35:58;;;;;;;4.20;2.60;;;;;;;26.97;41.75;96319.28;5072630;28;20062;-78